Flight Track Log - Related Links

Times and Time Zones

All times are in EDT time to prevent confusion due to time zone crossing. See the BOE5 flight status page for this flight to view local times or setup timezone preferences in your user account.

Time Position Orientation Groundspeed Altitude Reporting Facility
EDT Latitude Longitude Course Direction KTS MPH feet Rate Location/Type
Fri 11:33:14 AM 34.0667 -117.3000 239° Southwest 248 285 2,500  Level Southern California TRACON
Fri 11:34:14 AM 34.0333 -117.3833 244° Southwest 254 292 4,400 1,129 Climbing Southern California TRACON
Fri 11:36:20 AM 34.0469 -117.5492 276° West 260 299 6,000 670 Climbing Los Angeles Center
Fri 11:37:22 AM 34.0647 -117.6544 282° West 265 305 6,500 919 Climbing Los Angeles Center
Fri 11:38:00 AM 34.0954 -117.2349 239° Southwest  Level Estimated
Fri 11:38:24 AM 34.0983 -117.7372 296° West 272 313 7,900  Level Los Angeles Center
Fri 11:39:26 AM 34.1417 -117.8094 306° West 269 310 10,600 2,832 Climbing Los Angeles Center
Fri 11:40:29 AM 34.1864 -117.8792 308° West 266 306 13,800 2,640 Climbing Los Angeles Center
Fri 11:41:31 AM 34.2344 -117.9556 307° West 282 325 16,100 2,613 Climbing Los Angeles Center
Fri 11:42:33 AM 34.2933 -118.0481 308° West 292 336 19,200 2,177 Climbing Los Angeles Center
Fri 11:43:35 AM 34.3464 -118.1308 308° West 313 360 20,600 1,355 Climbing Los Angeles Center
Fri 11:44:37 AM 34.4092 -118.2325 307° West 376 433 22,000 1,790 Climbing Los Angeles Center
Fri 11:45:39 AM 34.4750 -118.3378 307° West 393 452 24,300 2,129 Climbing Los Angeles Center
Fri 11:46:41 AM 34.5419 -118.4450 307° West 404 465 26,400 1,887 Climbing Los Angeles Center
Fri 11:47:43 AM 34.6119 -118.5553 308° West 416 479 28,200 1,742 Climbing Los Angeles Center
Fri 11:48:45 AM 34.6981 -118.6939 307° West 430 495 30,000 1,597 Climbing Los Angeles Center
Fri 11:49:47 AM 34.7736 -118.8144 307° West 448 516 31,500 1,440 Climbing Los Angeles Center
Fri 11:50:50 AM 34.8661 -118.9142 319° Northwest 455 524 33,000 1,440 Climbing Los Angeles Center
Fri 11:51:52 AM 34.9722 -119.0014 326° Northwest 444 511 34,500 1,210 Climbing Los Angeles Center
Fri 11:52:54 AM 35.0636 -119.1050 317° Northwest 464 534 35,500 1,306 Climbing Los Angeles Center
Fri 11:53:56 AM 35.1297 -119.2367 302° West 458 527 37,200 1,210 Climbing Los Angeles Center
Fri 11:54:58 AM 35.2083 -119.3906 302° West 448 516 38,000 387 Climbing Los Angeles Center
Fri 11:56:00 AM 35.2739 -119.5186 302° West 446 513 38,000  Level Los Angeles Center
Fri 11:57:02 AM 35.3383 -119.6472 302° West 449 517 38,000  Level Los Angeles Center
Fri 11:57:39 AM 35.3761 -119.7236 301° West 443 510 38,000  Level Los Angeles Center
Fri 11:58:29 AM 35.4261 -119.8231 302° West 444 511 38,000 536 Level Oakland Center
Fri 11:59:31 AM 35.4894 -119.9497 302° West 441 507 39,000 488 Climbing Oakland Center
Fri 12:00:32 PM 35.5650 -120.1006 302° West 439 505 39,000 -49 Level Oakland Center
Fri 12:01:34 PM 35.6267 -120.2269 301° West 438 504 38,900 -49 Descending Oakland Center
Fri 12:02:35 PM 35.6886 -120.3536 301° West 439 505 38,900  Level Oakland Center
Fri 12:03:37 PM 35.7508 -120.4808 301° West 440 506 38,900  Level Oakland Center
Fri 12:04:38 PM 35.8131 -120.6083 301° West 439 505 38,900  Level Oakland Center
Fri 12:05:40 PM 35.8839 -120.7294 306° West 441 507 38,900  Level Oakland Center
Fri 12:06:41 PM 35.9778 -120.8669 310° West 438 504 38,900  Level Oakland Center
Fri 12:07:43 PM 36.0547 -120.9847 309° West 442 509 38,900  Level Oakland Center
Fri 12:08:44 PM 36.1325 -121.1031 309° West 442 509 38,900  Level Oakland Center
Fri 12:09:46 PM 36.2089 -121.2206 309° West 442 509 38,900  Level Oakland Center
Fri 12:10:47 PM 36.2844 -121.3392 308° West 438 504 38,900 49 Level Oakland Center
Fri 12:11:49 PM 36.3619 -121.4544 310° West 440 506 39,000  Climbing Oakland Center
Fri 12:12:50 PM 36.4383 -121.5756 308° West 443 510 38,900  Descending Oakland Center
Fri 12:13:52 PM 36.5144 -121.6942 309° West 440 506 39,000  Climbing Oakland Center
Fri 12:15:00 PM 36.4461 -121.5600 122° Southeast  Level Estimated
Fri 12:16:17 PM 36.7153 -122.0017 122° Southeast 440 506 38,900  Level Los Angeles Center
Fri 12:16:56 PM 36.7503 -122.0667 304° West 440 506 38,900 59 Level Oakland Center
Fri 12:17:58 PM 36.8294 -122.1833 310° West 438 504 39,000  Climbing Oakland Center
Fri 12:18:59 PM 36.9056 -122.3044 308° West 442 509 38,900  Descending Oakland Center
Fri 12:20:01 PM 36.9842 -122.4575 303° West 446 513 39,000  Climbing Oakland Center
Fri 12:21:02 PM 37.0278 -122.6033 291° West 446 513 38,900 -49 Descending Oakland Center
Fri 12:22:04 PM 37.0608 -122.7525 286° West 444 511 38,900 49 Level Oakland Center
Fri 12:23:05 PM 37.0961 -122.8994 287° West 442 509 39,000  Climbing Oakland Center
Fri 12:24:06 PM 37.1303 -123.0492 286° West 446 513 38,900 -49 Descending Oakland Center
Fri 12:25:08 PM 37.1644 -123.1989 286° West 448 516 38,900  Level Oakland Center
Fri 12:26:09 PM 37.1981 -123.3483 286° West 444 511 38,900 49 Level Oakland Center
Fri 12:27:10 PM 37.2314 -123.4972 286° West 443 510 39,000  Climbing Oakland Center
Fri 12:28:12 PM 37.2644 -123.6461 286° West 443 510 38,900 -49 Descending Oakland Center
Fri 12:29:13 PM 37.2983 -123.7942 286° West 442 509 38,900 49 Level Oakland Center
Fri 12:30:15 PM 37.3311 -123.9706 283° West 433 498 39,000  Climbing Oakland Center
Fri 12:31:16 PM 37.4167 -124.0778 315° West 435 501 38,900  Descending Oakland Center
Fri 12:32:17 PM 37.5156 -124.1664 325° Northwest 435 501 39,000  Climbing Oakland Center
Fri 12:33:19 PM 37.6156 -124.2561 325° Northwest 439 505 38,900  Descending Oakland Center
Fri 12:34:20 PM 37.7164 -124.3467 325° Northwest 444 511 39,000  Climbing Oakland Center
Fri 12:35:21 PM 37.8186 -124.4386 325° Northwest 447 514 38,900 -49 Descending Oakland Center
Fri 12:36:23 PM 37.9203 -124.5286 325° Northwest 446 513 38,900 49 Level Oakland Center
Fri 12:37:24 PM 38.0164 -124.6172 324° Northwest 437 503 39,000  Climbing Oakland Center
Fri 12:38:26 PM 38.1111 -124.7036 324° Northwest 427 491 38,900 -49 Descending Oakland Center
Fri 12:39:27 PM 38.2064 -124.7917 324° Northwest 423 487 38,900  Level Oakland Center
Fri 12:40:29 PM 38.3186 -124.8969 324° Northwest 422 486 38,900  Level Oakland Center
Fri 12:41:30 PM 38.4144 -124.9853 324° Northwest 423 487 38,900  Level Oakland Center
Fri 12:42:31 PM 38.5089 -125.0742 324° Northwest 423 487 38,900  Level Oakland Center
Fri 12:43:33 PM 38.6056 -125.1617 325° Northwest 424 488 38,900  Level Oakland Center
Fri 12:44:34 PM 38.6917 -125.2431 324° Northwest 424 488 38,900  Level Oakland Center
Fri 12:45:36 PM 38.8064 -125.3506 324° Northwest 425 489 38,900  Level Oakland Center
Fri 12:46:37 PM 38.9031 -125.4392 325° Northwest 426 490 38,900  Level Oakland Center
Fri 12:47:38 PM 38.9994 -125.5289 324° Northwest 426 490 38,900  Level Oakland Center
Fri 12:48:40 PM 39.0953 -125.6192 324° Northwest 427 491 38,900  Level Oakland Center
Fri 12:49:41 PM 39.1989 -125.7139 325° Northwest 423 487 38,900  Level Oakland Center
Fri 12:50:43 PM 39.2953 -125.8042 324° Northwest 426 490 38,900 49 Level Oakland Center
Fri 12:51:44 PM 39.3911 -125.8925 325° Northwest 425 489 39,000  Climbing Oakland Center
Fri 12:52:46 PM 39.4789 -125.9753 324° Northwest 424 488 38,900 -49 Descending Oakland Center
Fri 12:53:47 PM 39.5750 -126.0642 325° Northwest 424 488 38,900 49 Level Oakland Center
Fri 12:54:49 PM 39.6906 -126.1728 324° Northwest 426 490 39,000  Climbing Oakland Center
Fri 12:55:50 PM 39.7869 -126.2614 325° Northwest 425 489 38,900 -49 Descending Oakland Center
Fri 12:56:52 PM 39.8825 -126.3506 324° Northwest 425 489 38,900  Level Oakland Center
Fri 12:57:53 PM 39.9803 -126.4353 326° Northwest 421 484 38,900  Level Oakland Center
Fri 12:58:54 PM 40.0975 -126.4669 348° North 426 490 38,900  Level Oakland Center
Fri 12:59:56 PM 40.2214 -126.4375 10° North 449 517 38,900 49 Level Oakland Center
Fri 01:00:57 PM 40.3450 -126.3972 14° North 456 525 39,000 49 Climbing Oakland Center
Fri 01:01:59 PM 40.4697 -126.3583 13° North 458 527 39,000 -49 Level Oakland Center
Fri 01:03:00 PM 40.5925 -126.3192 14° North 457 526 38,900 -49 Descending Oakland Center
Fri 01:04:01 PM 40.7411 -126.2714 14° North 456 525 38,900  Level Oakland Center
Fri 01:05:03 PM 40.8678 -126.2328 13° North 459 528 38,900  Level Oakland Center
Fri 01:06:04 PM 40.9939 -126.1922 14° North 462 532 38,900  Level Oakland Center
Fri 01:07:06 PM 41.1211 -126.1508 14° North 465 535 38,900  Level Oakland Center
Fri 01:08:07 PM 41.2475 -126.1111 13° North 466 536 38,900 49 Level Seattle Center
Fri 01:09:08 PM 41.3736 -126.0686 14° North 467 537 39,000 49 Climbing Seattle Center
Fri 01:10:09 PM 41.5008 -126.0297 13° North 468 539 39,000 -49 Level Seattle Center
Fri 01:11:10 PM 41.6267 -125.9881 14° North 468 539 38,900  Descending Seattle Center
Fri 01:12:10 PM 41.7497 -125.9506 13° North 462 532 39,000 50 Climbing Seattle Center
Fri 01:13:11 PM 41.8808 -125.9047 15° North 482 555 39,000  Level Seattle Center
Fri 01:14:12 PM 42.0089 -125.8628 14° North 474 545 39,000 -49 Level Seattle Center
Fri 01:15:13 PM 42.1356 -125.8214 14° North 471 542 38,900  Descending Seattle Center
Fri 01:16:14 PM 42.2606 -125.7797 14° North 465 535 39,000 49 Climbing Seattle Center
Fri 01:17:15 PM 42.4114 -125.7292 14° North 465 535 39,000  Level Seattle Center
Fri 01:18:16 PM 42.5364 -125.6867 14° North 464 534 39,000  Level Seattle Center
Fri 01:19:17 PM 42.6603 -125.6464 13° North 460 529 39,000 -49 Level Seattle Center
Fri 01:20:18 PM 42.7833 -125.6067 13° North 457 526 38,900  Descending Seattle Center
Fri 01:21:18 PM 42.8981 -125.5694 13° North 451 519 39,000 50 Climbing Seattle Center
Fri 01:22:19 PM 43.0175 -125.5286 14° North 445 512 39,000 -49 Level Seattle Center
Fri 01:23:20 PM 43.1375 -125.4878 14° North 445 512 38,900 -49 Descending Seattle Center
Fri 01:24:21 PM 43.2614 -125.4553 11° North 455 524 38,900 49 Level Seattle Center
Fri 01:25:22 PM 43.3828 -125.4158 13° North 451 519 39,000  Climbing Seattle Center
Fri 01:26:23 PM 43.5014 -125.3717 15° North 446 513 38,900  Descending Seattle Center
Fri 01:27:24 PM 43.6225 -125.3289 14° North 448 516 39,000 49 Climbing Seattle Center
Fri 01:28:25 PM 43.7414 -125.2831 16° North 447 514 39,000 -50 Level Seattle Center
Fri 01:29:25 PM 43.8875 -125.2308 14° North 458 527 38,900  Descending Seattle Center
Fri 01:30:26 PM 44.0072 -125.1892 14° North 450 518 39,000 49 Climbing Seattle Center
Fri 01:31:27 PM 44.1286 -125.1467 14° North 452 520 39,000  Level Seattle Center
Fri 01:32:28 PM 44.2522 -125.1022 14° North 459 528 39,000  Level Seattle Center
Fri 01:33:29 PM 44.3831 -125.0586 13° North 476 548 39,000 -49 Level Seattle Center
Fri 01:34:30 PM 44.5089 -125.0122 15° North 472 543 38,900 -49 Descending Seattle Center
Fri 01:35:31 PM 44.6367 -124.9650 15° North 473 544 38,900  Level Seattle Center
Fri 01:36:32 PM 44.7667 -124.9183 14° North 477 549 38,900  Level Seattle Center
Fri 01:37:33 PM 44.8939 -124.8722 14° North 475 547 38,900 49 Level Seattle Center
Fri 01:38:34 PM 45.0189 -124.8267 14° North 465 535 39,000  Climbing Seattle Center
Fri 01:39:35 PM 45.1458 -124.7800 15° North 468 539 38,900  Descending Seattle Center
Fri 01:40:36 PM 45.2714 -124.7331 15° North 466 536 39,000 50 Climbing Seattle Center
Fri 01:41:36 PM 45.3975 -124.6864 15° North 468 539 39,000 -50 Level Seattle Center
Fri 01:42:37 PM 45.5228 -124.6394 15° North 465 535 38,900 -49 Descending Seattle Center
Fri 01:43:38 PM 45.6481 -124.5928 15° North 464 534 38,900  Level Seattle Center
Fri 01:44:39 PM 45.7739 -124.5453 15° North 467 537 38,900  Level Seattle Center
Fri 01:45:40 PM 45.8997 -124.4975 15° North 469 540 38,900  Level Seattle Center
Fri 01:46:41 PM 46.0522 -124.4375 15° North 473 544 38,900  Level Seattle Center
Fri 01:47:42 PM 46.1811 -124.3894 14° North 476 548 38,900  Level Seattle Center
Fri 01:48:43 PM 46.3083 -124.3403 15° North 474 545 38,900  Level Seattle Center
Fri 01:49:44 PM 46.4406 -124.2892 15° North 474 545 38,900  Level Seattle Center
Fri 01:50:45 PM 46.5692 -124.2414 14° North 479 551 38,900  Level Seattle Center
Fri 01:51:46 PM 46.6964 -124.1911 15° North 476 548 38,900  Level Seattle Center
Fri 01:52:46 PM 46.8256 -124.1522 12° North 474 545 38,900 50 Level Seattle Center
Fri 01:53:47 PM 46.9503 -124.1925 348° North 456 525 39,000  Climbing Seattle Center
Fri 01:54:48 PM 47.0492 -124.3014 323° Northwest 442 509 38,900 -49 Descending Seattle Center
Fri 01:55:49 PM 47.1069 -124.4614 298° West 445 512 38,900  Level Seattle Center
Fri 01:56:50 PM 47.1361 -124.6344 284° West 438 504 38,900 49 Level Seattle Center
Fri 01:57:51 PM 47.1667 -124.8108 284° West 444 511 39,000 49 Climbing Seattle Center
Fri 01:58:52 PM 47.1961 -124.9867 284° West 443 510 39,000  Level Seattle Center
Fri 01:59:53 PM 47.2269 -125.1606 285° West 441 507 39,000 -49 Level Seattle Center
Fri 02:00:54 PM 47.2569 -125.3339 284° West 438 504 38,900  Descending Seattle Center
Fri 02:01:55 PM 47.2869 -125.5081 284° West 438 504 39,000  Climbing Seattle Center
Fri 02:02:55 PM 47.3161 -125.6786 284° West 431 496 38,900 -50 Descending Seattle Center
Fri 02:03:56 PM 47.3458 -125.8494 284° West 431 496 38,900  Level Seattle Center
Fri 02:04:57 PM 47.3853 -126.0517 286° West 430 495 38,900  Level Seattle Center
Fri 02:05:58 PM 47.4214 -126.2217 287° West 432 497 38,900  Level Seattle Center
Fri 02:06:59 PM 47.4542 -126.3919 286° West 432 497 38,900  Level Seattle Center
Fri 02:08:00 PM 47.4861 -126.5628 286° West 433 498 38,900  Level Seattle Center
Fri 02:09:01 PM 47.5192 -126.7317 286° West 429 494 38,900  Level Seattle Center
Fri 02:10:02 PM 47.5714 -126.8900 296° West 433 498 38,900 49 Level Seattle Center
Fri 02:11:03 PM 47.6642 -126.9958 322° Northwest 426 490 39,000 49 Climbing Seattle Center
Fri 02:12:04 PM 47.7892 -126.9714 North 462 532 39,000 -49 Level Seattle Center
Fri 02:13:05 PM 47.8831 -126.8219 47° Northeast 503 579 38,900 -49 Descending Seattle Center
Fri 02:14:06 PM 47.8836 -126.6069 90° East 538 619 38,900 49 Level Seattle Center
Fri 02:15:07 PM 47.8044 -126.4122 121° Southeast 550 633 39,000 49 Climbing Seattle Center
Fri 02:16:08 PM 47.7253 -126.2214 122° Southeast 548 631 39,000  Level Seattle Center
Fri 02:17:09 PM 47.6469 -126.0317 121° Southeast 544 626 39,000 -49 Level Seattle Center
Fri 02:18:10 PM 47.5531 -125.8033 121° Southeast 544 626 38,900 -49 Descending Seattle Center
Fri 02:19:11 PM 47.4750 -125.6142 121° Southeast 543 625 38,900 49 Level Seattle Center
Fri 02:20:12 PM 47.3956 -125.4217 121° Southeast 550 633 39,000 49 Climbing Seattle Center
Fri 02:21:13 PM 47.3161 -125.2289 121° Southeast 554 638 39,000 -49 Level Seattle Center
Fri 02:22:14 PM 47.2367 -125.0364 121° Southeast 553 636 38,900 -49 Descending Seattle Center
Fri 02:23:16 PM 47.1578 -124.8447 121° Southeast 552 635 38,900 49 Level Seattle Center
Fri 02:24:17 PM 47.0797 -124.6553 121° Southeast 549 632 39,000  Climbing Seattle Center
Fri 02:25:18 PM 47.0017 -124.4658 121° Southeast 547 629 38,900 -50 Descending Seattle Center
Fri 02:26:18 PM 46.9208 -124.2808 123° Southeast 545 627 38,900  Level Seattle Center
Fri 02:27:20 PM 46.7758 -124.1339 145° Southeast 535 616 38,900  Level Seattle Center
Fri 02:28:21 PM 46.6344 -124.1025 171° South 514 592 38,900  Level Seattle Center
Fri 02:29:22 PM 46.4992 -124.1564 195° South 501 577 38,900  Level Seattle Center
Fri 02:30:23 PM 46.3689 -124.2122 196° South 504 580 38,900  Level Seattle Center
Fri 02:31:24 PM 46.2353 -124.2658 196° South 502 578 38,900 49 Level Seattle Center
Fri 02:32:25 PM 46.1006 -124.3228 196° South 504 580 39,000 49 Climbing Seattle Center
Fri 02:33:26 PM 45.9667 -124.3778 196° South 502 578 39,000 -49 Level Seattle Center
Fri 02:34:27 PM 45.8319 -124.4311 195° South 503 579 38,900 -49 Descending Seattle Center
Fri 02:35:28 PM 45.6992 -124.4831 195° South 498 573 38,900  Level Seattle Center
Fri 02:36:29 PM 45.5383 -124.5469 196° South 501 577 38,900 49 Level Seattle Center
Fri 02:37:30 PM 45.4033 -124.6028 196° South 507 583 39,000  Climbing Seattle Center
Fri 02:38:31 PM 45.2689 -124.6536 195° South 503 579 38,900 -49 Descending Seattle Center
Fri 02:39:32 PM 45.1353 -124.7069 196° South 504 580 38,900 49 Level Seattle Center
Fri 02:40:33 PM 45.0033 -124.7597 196° South 498 573 39,000  Climbing Seattle Center
Fri 02:41:34 PM 44.8714 -124.8114 196° South 496 571 38,900 -49 Descending Seattle Center
Fri 02:42:35 PM 44.7403 -124.8614 195° South 493 567 38,900 49 Level Seattle Center
Fri 02:43:36 PM 44.6094 -124.9256 199° South 498 573 39,000 49 Climbing Seattle Center
Fri 02:44:37 PM 44.4761 -124.9811 197° South 501 577 39,000  Level Seattle Center
Fri 02:45:38 PM 44.3103 -125.0411 195° South 506 582 39,000  Level Seattle Center
Fri 02:46:39 PM 44.1700 -125.0925 195° South 516 594 39,000  Level Seattle Center
Fri 02:47:40 PM 44.0294 -125.1422 194° South 522 601 39,000  Level Seattle Center
Fri 02:48:41 PM 43.8894 -125.1933 195° South 522 601 39,000 -49 Level Seattle Center
Fri 02:49:42 PM 43.7503 -125.2433 195° South 520 598 38,900  Descending Seattle Center
Fri 02:50:43 PM 43.6119 -125.2919 194° South 517 595 39,000 49 Climbing Seattle Center
Fri 02:51:44 PM 43.4644 -125.3025 183° South 529 609 39,000 -49 Level Seattle Center
Fri 02:52:45 PM 43.3100 -125.2594 169° South 553 636 38,900  Descending Seattle Center
Fri 02:53:46 PM 43.1547 -125.2178 169° South 562 647 39,000  Climbing Seattle Center
Fri 02:54:47 PM 43.0025 -125.1803 170° South 561 646 38,900 -49 Descending Seattle Center
Fri 02:55:48 PM 42.8392 -125.1347 168° South 565 650 38,900  Level Seattle Center
Fri 02:56:49 PM 42.6850 -125.0961 170° South 566 651 38,900  Level Seattle Center
Fri 02:57:50 PM 42.5328 -125.0561 169° South 559 643 38,900  Level Seattle Center
Fri 02:58:51 PM 42.3489 -125.0089 169° South 560 644 38,900 49 Level Seattle Center
Fri 02:59:52 PM 42.1983 -124.9711 169° South 553 636 39,000  Climbing Seattle Center
Fri 03:00:53 PM 42.0500 -124.9389 171° South 543 625 38,900 -393 Descending Seattle Center
Fri 03:01:54 PM 41.9061 -124.9064 170° South 528 608 38,200 -1,574 Descending Seattle Center
Fri 03:02:55 PM 41.7658 -124.8733 170° South 516 594 35,700 -2,361 Descending Seattle Center
Fri 03:03:56 PM 41.6242 -124.8408 170° South 517 595 33,400 -1,967 Descending Seattle Center
Fri 03:04:57 PM 41.4858 -124.8089 170° South 508 585 31,700 -1,623 Descending Seattle Center
Fri 03:05:58 PM 41.3519 -124.7783 170° South 493 567 30,100 -1,574 Descending Seattle Center
Fri 03:06:59 PM 41.2219 -124.7500 171° South 478 550 28,500 -1,820 Descending Seattle Center
Fri 03:08:00 PM 41.0911 -124.7214 171° South 478 550 26,400 -2,262 Descending Seattle Center
Fri 03:09:01 PM 40.9656 -124.6914 170° South 465 535 23,900 -2,611 Descending Seattle Center
Fri 03:09:48 PM 40.8692 -124.6658 169° South 451 519 21,700 -2,642 Descending Oakland Center
Fri 03:10:50 PM 40.7531 -124.6358 169° South 433 498 19,100 -2,488 Descending Oakland Center
Fri 03:11:51 PM 40.6211 -124.6025 169° South 413 475 16,600 -2,293 Descending Oakland Center
Fri 03:12:53 PM 40.5275 -124.5783 169° South 370 426 14,400 -2,049 Descending Oakland Center
Fri 03:13:54 PM 40.4483 -124.5642 172° South 322 371 12,400 -2,213 Descending Oakland Center
Fri 03:14:55 PM 40.3800 -124.5525 173° South 282 325 9,900 -2,390 Descending Oakland Center
Fri 03:15:57 PM 40.3150 -124.5394 171° South 257 296 7,500 -2,146 Descending Oakland Center
Fri 03:16:58 PM 40.2531 -124.5294 173° South 240 276 5,500 -947 Descending Oakland Center
Fri 03:18:10 PM 40.1811 -124.5156 172° South 227 261 5,400 -48 Descending Seattle Center
Fri 03:19:02 PM 40.1208 -124.5036 171° South 222 255 5,400  Level Oakland Center
Fri 03:19:11 PM 40.1208 -124.5036 171° South 223 257 5,400  Level Seattle Center
Fri 03:20:03 PM 40.0597 -124.4908 171° South 223 257 5,400  Level Oakland Center
Fri 03:21:04 PM 39.9992 -124.4767 170° South 222 255 5,400 -49 Level Oakland Center
Fri 03:22:06 PM 39.9386 -124.4628 170° South 222 255 5,300 -49 Descending Oakland Center
Fri 03:23:07 PM 39.8789 -124.4494 170° South 221 254 5,300  Level Oakland Center
Fri 03:24:09 PM 39.8197 -124.4364 170° South 219 252 5,300 -49 Level Oakland Center
Fri 03:25:10 PM 39.7464 -124.4206 171° South 220 253 5,200  Descending Oakland Center
Fri 03:26:12 PM 39.6861 -124.4067 170° South 221 254 5,300 49 Climbing Oakland Center
Fri 03:27:13 PM 39.6256 -124.3936 171° South 221 254 5,300  Level Oakland Center
Fri 03:28:15 PM 39.5644 -124.3794 170° South 222 255 5,300  Level Oakland Center
Fri 03:29:17 PM 39.5033 -124.3672 171° South 222 255 5,300  Level Oakland Center
Fri 03:30:18 PM 39.4358 -124.3519 170° South 222 255 5,300 -49 Level Oakland Center
Fri 03:31:20 PM 39.3750 -124.3372 169° South 222 255 5,200  Descending Oakland Center
Fri 03:32:21 PM 39.3122 -124.3236 170° South 226 260 5,300 49 Climbing Oakland Center
Fri 03:33:23 PM 39.2511 -124.3106 171° South 224 258 5,300  Level Oakland Center
Fri 03:34:24 PM 39.1889 -124.2947 169° South 226 260 5,300 -49 Level Oakland Center
Fri 03:35:26 PM 39.1278 -124.2828 171° South 224 258 5,200  Descending Oakland Center
Fri 03:36:27 PM 39.0669 -124.2681 169° South 224 258 5,300 49 Climbing Oakland Center
Fri 03:37:29 PM 38.9928 -124.2511 170° South 224 258 5,300  Level Oakland Center
Fri 03:38:30 PM 38.9314 -124.2375 170° South 225 259 5,300  Level Oakland Center
Fri 03:39:32 PM 38.8703 -124.2222 169° South 225 259 5,300  Level Oakland Center
Fri 03:40:33 PM 38.8097 -124.2003 164° South 225 259 5,300  Level Oakland Center
Fri 03:41:35 PM 38.7578 -124.1603 149° Southeast 220 253 5,300  Level Oakland Center
Fri 03:42:36 PM 38.7036 -124.1228 152° Southeast 220 253 5,300  Level Oakland Center
Fri 03:43:38 PM 38.6489 -124.0850 152° Southeast 221 254 5,300  Level Oakland Center
Fri 03:44:40 PM 38.5950 -124.0486 152° Southeast 221 254 5,300  Level Oakland Center
Fri 03:45:41 PM 38.5258 -124.0169 160° South 218 251 5,300  Level Oakland Center
Fri 03:46:43 PM 38.4650 -123.9981 166° South 220 253 5,300  Level Oakland Center
Fri 03:47:44 PM 38.4050 -123.9706 160° South 224 258 5,300  Level Oakland Center
Fri 03:48:46 PM 38.3500 -123.9303 150° Southeast 229 264 5,300  Level Oakland Center
Fri 03:49:47 PM 38.3003 -123.8847 144° Southeast 227 261 5,300  Level Oakland Center
Fri 03:50:49 PM 38.2528 -123.8408 144° Southeast 221 254 5,300  Level Oakland Center
Fri 03:51:50 PM 38.2028 -123.7972 146° Southeast 218 251 5,300  Level Oakland Center
Fri 03:52:52 PM 38.1428 -123.7456 146° Southeast 218 251 5,300  Level Oakland Center
Fri 03:53:54 PM 38.0933 -123.7025 146° Southeast 217 250 5,300  Level Oakland Center
Fri 03:54:55 PM 38.0439 -123.6597 146° Southeast 216 249 5,300  Level Oakland Center
Fri 03:55:57 PM 37.9947 -123.6164 145° Southeast 216 249 5,300  Level Oakland Center
Fri 03:56:58 PM 37.9461 -123.5725 145° Southeast 216 249 5,300  Level Oakland Center
Fri 03:58:00 PM 37.8961 -123.5294 146° Southeast 216 249 5,300  Level Oakland Center
Fri 03:59:01 PM 37.8464 -123.4869 146° Southeast 217 250 5,300  Level Oakland Center
Fri 04:00:03 PM 37.7978 -123.4431 144° Southeast 216 249 5,300  Level Oakland Center
Fri 04:01:04 PM 37.7408 -123.3878 142° Southeast 216 249 5,300  Level Oakland Center
Fri 04:02:06 PM 37.6942 -123.3408 141° Southeast 216 249 5,300  Level Oakland Center
Fri 04:03:07 PM 37.6469 -123.2931 141° Southeast 217 250 5,300  Level Oakland Center
Fri 04:04:09 PM 37.5992 -123.2467 142° Southeast 218 251 5,300  Level Oakland Center
Fri 04:05:10 PM 37.5514 -123.2008 143° Southeast 217 250 5,300  Level Oakland Center
Fri 04:06:12 PM 37.5044 -123.1542 142° Southeast 217 250 5,300  Level Oakland Center
Fri 04:07:14 PM 37.4486 -123.0978 141° Southeast 216 249 5,300  Level Oakland Center
Fri 04:08:15 PM 37.4006 -123.0522 143° Southeast 216 249 5,300  Level Oakland Center
Fri 04:09:17 PM 37.3542 -123.0061 142° Southeast 215 247 5,300  Level Oakland Center
Fri 04:10:18 PM 37.3064 -122.9606 143° Southeast 216 249 5,300  Level Oakland Center
Fri 04:11:20 PM 37.2589 -122.9139 142° Southeast 216 249 5,300  Level Oakland Center
Fri 04:12:21 PM 37.2178 -122.8611 134° Southeast 214 246 5,300  Level Oakland Center
Fri 04:13:23 PM 37.1783 -122.8031 130° Southeast 216 249 5,300  Level Oakland Center
Fri 04:14:25 PM 37.1358 -122.7322 127° Southeast 214 246 5,300  Level Oakland Center
Fri 04:15:26 PM 37.1042 -122.6703 123° Southeast 212 244 5,300 -49 Level Oakland Center
Fri 04:16:28 PM 37.0711 -122.6089 124° Southeast 213 245 5,200 -49 Descending Oakland Center
Fri 04:17:29 PM 37.0403 -122.5467 122° Southeast 212 244 5,200  Level Oakland Center
Fri 04:18:31 PM 37.0092 -122.4853 122° Southeast 211 243 5,200 -49 Level Oakland Center
Fri 04:19:32 PM 36.9786 -122.4244 122° Southeast 210 242 5,100 1,122 Descending Oakland Center
Fri 04:20:34 PM 36.9414 -122.3522 123° Southeast 226 260 7,500 2,829 Climbing Oakland Center
Fri 04:21:35 PM 36.8967 -122.2583 121° Southeast 302 348 10,900 1,902 Climbing Oakland Center
Fri 04:22:37 PM 36.8331 -122.1336 122° Southeast 364 419 11,400 396 Climbing Oakland Center
Fri 04:23:21 PM 36.8000 -122.0500 116° Southeast 378 435 11,600 115 Climbing Northern Cal TRACON
Fri 04:24:21 PM 36.7333 -121.9333 125° Southeast 427 491 11,600 1,752 Level Northern Cal TRACON
Fri 04:26:43 PM 36.5728 -121.6331 124° Southeast 437 503 17,500 2,176 Climbing Oakland Center
Fri 04:27:45 PM 36.5028 -121.4972 123° Southeast 462 532 19,000 677 Climbing Oakland Center
Fri 04:28:47 PM 36.4297 -121.3547 122° Southeast 485 558 18,900  Descending Oakland Center
Fri 04:29:48 PM 36.3572 -121.2158 123° Southeast 481 554 19,000 49 Climbing Oakland Center
Fri 04:30:49 PM 36.2842 -121.0769 123° Southeast 481 554 19,000 -49 Level Oakland Center
Fri 04:31:51 PM 36.2119 -120.9353 122° Southeast 486 559 18,900  Descending Oakland Center
Fri 04:32:52 PM 36.1386 -120.7975 123° Southeast 480 552 19,000 49 Climbing Oakland Center
Fri 04:33:54 PM 36.0508 -120.6317 123° Southeast 477 549 19,000  Level Oakland Center
Fri 04:34:56 PM 35.9778 -120.4925 123° Southeast 479 551 19,000 -49 Level Oakland Center
Fri 04:35:57 PM 35.9031 -120.3544 124° Southeast 481 554 18,900 -49 Descending Oakland Center
Fri 04:36:59 PM 35.8286 -120.2164 124° Southeast 480 552 18,900  Level Oakland Center
Fri 04:38:00 PM 35.7544 -120.0792 124° Southeast 479 551 18,900 49 Level Oakland Center
Fri 04:39:02 PM 35.6797 -119.9408 124° Southeast 480 552 19,000 49 Climbing Oakland Center
Fri 04:40:03 PM 35.6042 -119.8031 124° Southeast 481 554 19,000  Level Oakland Center
Fri 04:41:05 PM 35.5289 -119.6644 124° Southeast 483 556 19,000 -49 Level Oakland Center
Fri 04:42:06 PM 35.4539 -119.5278 124° Southeast 483 556 18,900 -49 Descending Oakland Center
Fri 04:43:08 PM 35.3792 -119.3906 124° Southeast 482 555 18,900 65 Level Oakland Center
Fri 04:43:38 PM 35.3328 -119.3072 124° Southeast 486 559 19,000  Climbing Los Angeles Center
Fri 04:44:39 PM 35.2725 -119.1969 124° Southeast 488 562 18,900 -48 Descending Los Angeles Center
Fri 04:45:42 PM 35.1817 -119.0322 124° Southeast 488 562 18,900  Level Los Angeles Center
Fri 04:46:44 PM 35.1042 -118.8972 125° Southeast 485 558 18,900  Level Los Angeles Center
Fri 04:47:46 PM 35.0122 -118.7333 124° Southeast 487 560 18,900 48 Level Los Angeles Center
Fri 04:48:49 PM 34.9350 -118.5964 124° Southeast 489 563 19,000 48 Climbing Los Angeles Center
Fri 04:49:51 PM 34.8644 -118.4753 125° Southeast 496 571 19,000  Level Los Angeles Center
Fri 04:50:53 PM 34.7761 -118.3178 124° Southeast 479 551 19,000  Level Los Angeles Center
Fri 04:51:55 PM 34.7008 -118.1844 124° Southeast 481 554 19,000  Level Los Angeles Center
Fri 04:52:57 PM 34.6247 -118.0503 125° Southeast 487 560 19,000 -484 Level Los Angeles Center
Fri 04:53:59 PM 34.5619 -117.9142 119° Southeast 468 539 18,000 -1,500 Descending Los Angeles Center
Fri 04:55:01 PM 34.5025 -117.7847 119° Southeast 447 514 15,900 -1,694 Descending Los Angeles Center
Fri 04:56:03 PM 34.4358 -117.6389 119° Southeast 414 476 14,500 -876 Descending Los Angeles Center
Fri 04:57:18 PM 34.3817 -117.5192 119° Southeast 359 413 13,900 -613 Descending Los Angeles Center
Fri 04:58:20 PM 34.3369 -117.4222 119° Southeast 334 384 13,100 -912 Descending Los Angeles Center
Fri 04:59:23 PM 34.2644 -117.3317 134° Southeast 333 383 12,000 -1,632 Descending Los Angeles Center
Fri 05:00:25 PM 34.1789 -117.3086 167° South 309 356 9,700 -2,400 Descending Los Angeles Center
Fri 05:01:28 PM 34.0950 -117.3208 187° South 306 352 7,000 -3,000 Descending Los Angeles Center
Fri 05:01:49 PM 34.0667 -117.3333 200° South 286 329 5,500 -3,259 Descending Southern California TRACON
Fri 05:02:49 PM 34.0000 -117.3167 168° South 254 292 2,600 -1,350 Descending Southern California TRACON
Fri 05:03:49 PM 34.0333 -117.2667 51° Northeast 219 252 2,800 150 Climbing Southern California TRACON
Fri 05:04:49 PM 34.0500 -117.2000 73° East 186 214 2,900 -150 Climbing Southern California TRACON
Fri 05:05:49 PM 34.0833 -117.1667 40° Northeast 157 181 2,500 -694 Descending Southern California TRACON
Fri 05:06:50 PM 34.1000 -117.2000 301° West 151 174 1,500 -984 Descending Southern California TRACON

Login

Don't have an account? Register now (free) for customized features, flight alerts, and more!